createdAt,value
2023-01-11T00:00:20.381Z,11.90
2023-01-11T00:01:13.707Z,7.80
2023-01-11T00:01:51.354Z,12.70
2023-01-11T00:02:25.381Z,11.40
2023-01-11T00:03:00.894Z,10.00
2023-01-11T00:03:34.482Z,9.80
2023-01-11T00:04:07.823Z,9.50
2023-01-11T00:04:41.669Z,11.30
2023-01-11T00:05:15.384Z,12.30
2023-01-11T00:05:48.847Z,11.10
2023-01-11T00:06:22.310Z,10.20
2023-01-11T00:06:56.507Z,9.60
2023-01-11T00:07:30.213Z,10.20
2023-01-11T00:08:05.053Z,14.70
2023-01-11T00:08:38.374Z,8.30
2023-01-11T00:09:12.507Z,9.60
2023-01-11T00:09:47.993Z,10.60
2023-01-11T00:10:22.154Z,10.30
2023-01-11T00:10:56.091Z,11.20
2023-01-11T00:11:29.616Z,11.60
2023-01-11T00:12:03.174Z,10.80
2023-01-11T00:12:36.669Z,13.80
2023-01-11T00:13:10.092Z,12.10
2023-01-11T00:13:45.564Z,13.20
2023-01-11T00:14:19.080Z,12.60
2023-01-11T00:14:52.432Z,13.60
2023-01-11T00:15:26.051Z,10.30
2023-01-11T00:16:06.422Z,10.30
2023-01-11T00:16:40.057Z,14.90
2023-01-11T00:17:13.486Z,9.00
2023-01-11T00:17:46.952Z,14.00
2023-01-11T00:18:20.419Z,14.00
2023-01-11T00:18:53.844Z,12.20
2023-01-11T00:19:27.275Z,13.80
2023-01-11T00:20:00.699Z,9.80
2023-01-11T00:20:34.161Z,10.00
2023-01-11T00:21:08.153Z,10.10
2023-01-11T00:21:41.738Z,11.90
2023-01-11T00:22:15.142Z,7.60
2023-01-11T00:22:48.543Z,12.60
2023-01-11T00:23:25.240Z,12.70
2023-01-11T00:23:58.683Z,9.10
2023-01-11T00:24:32.241Z,11.00
2023-01-11T00:25:06.028Z,10.00
2023-01-11T00:25:39.495Z,9.90
2023-01-11T00:26:13.917Z,11.60
2023-01-11T00:26:47.777Z,12.70
2023-01-11T00:27:21.309Z,8.10
2023-01-11T00:27:55.223Z,9.20
2023-01-11T00:28:28.801Z,13.20
2023-01-11T00:29:02.394Z,10.10
2023-01-11T00:29:35.816Z,10.00
2023-01-11T00:30:09.845Z,8.70
2023-01-11T00:30:43.216Z,9.80
2023-01-11T00:31:17.809Z,9.40
2023-01-11T00:31:53.503Z,10.90
2023-01-11T00:32:27.579Z,10.80
2023-01-11T00:33:01.207Z,8.00
2023-01-11T00:33:34.633Z,10.40
2023-01-11T00:34:08.175Z,8.80
2023-01-11T00:34:41.744Z,10.00
2023-01-11T00:35:15.503Z,12.00
2023-01-11T00:35:51.794Z,9.80
2023-01-11T00:36:25.617Z,8.90
2023-01-11T00:36:59.134Z,6.30
2023-01-11T00:37:32.747Z,7.40
2023-01-11T00:38:06.209Z,6.80
2023-01-11T00:38:51.782Z,7.70
2023-01-11T00:39:25.349Z,8.20
2023-01-11T00:39:58.917Z,9.50
2023-01-11T00:40:35.318Z,11.40
2023-01-11T00:41:28.047Z,9.60
2023-01-11T00:42:20.262Z,5.90
2023-01-11T00:43:12.608Z,9.50
2023-01-11T00:44:05.078Z,8.90
2023-01-11T00:44:57.382Z,10.60
2023-01-11T00:45:50.318Z,7.20
2023-01-11T00:46:42.523Z,9.00
2023-01-11T00:47:36.153Z,8.20
2023-01-11T00:48:11.102Z,7.30
2023-01-11T00:48:44.550Z,7.40
2023-01-11T00:49:18.334Z,7.60
2023-01-11T00:49:51.964Z,8.90
2023-01-11T00:50:27.059Z,10.40
2023-01-11T00:51:00.491Z,10.50
2023-01-11T00:51:33.973Z,6.40
2023-01-11T00:52:09.892Z,11.90
2023-01-11T00:52:43.545Z,10.40
2023-01-11T00:53:18.628Z,10.00
2023-01-11T00:53:52.640Z,9.60
2023-01-11T00:54:26.146Z,8.40
2023-01-11T00:54:59.512Z,10.20
2023-01-11T00:55:33.104Z,8.30
2023-01-11T00:56:06.659Z,10.30
2023-01-11T00:56:40.517Z,12.30
2023-01-11T00:57:13.851Z,9.80
2023-01-11T00:57:47.338Z,10.70
2023-01-11T00:58:20.853Z,9.20
2023-01-11T00:58:54.204Z,9.30
2023-01-11T00:59:27.618Z,7.80
2023-01-11T01:00:01.096Z,9.00
2023-01-11T01:00:34.625Z,10.40
2023-01-11T01:01:08.307Z,11.50
2023-01-11T01:01:44.243Z,7.90
2023-01-11T01:02:17.733Z,11.40
2023-01-11T01:02:51.265Z,8.10
2023-01-11T01:03:24.741Z,10.10
2023-01-11T01:03:59.987Z,11.80
2023-01-11T01:04:33.510Z,12.10
2023-01-11T01:05:07.513Z,13.90
2023-01-11T01:05:40.847Z,10.40
2023-01-11T01:06:14.237Z,10.20
2023-01-11T01:06:48.139Z,9.70
2023-01-11T01:07:21.580Z,11.80
2023-01-11T01:07:55.084Z,8.10
2023-01-11T01:08:28.651Z,10.00
2023-01-11T01:09:02.223Z,11.50
2023-01-11T01:09:35.903Z,14.90
2023-01-11T01:10:10.594Z,9.50
2023-01-11T01:10:43.997Z,10.80
2023-01-11T01:11:17.514Z,11.30
2023-01-11T01:11:51.021Z,10.90
2023-01-11T01:12:44.420Z,10.80
2023-01-11T01:13:36.933Z,11.90
2023-01-11T01:14:26.934Z,9.20
2023-01-11T01:15:00.437Z,10.10
2023-01-11T01:15:36.426Z,12.40
2023-01-11T01:16:09.928Z,10.10
2023-01-11T01:16:43.540Z,14.00
2023-01-11T01:17:16.908Z,10.50
2023-01-11T01:17:54.053Z,11.10
2023-01-11T01:18:27.479Z,11.60
2023-01-11T01:19:01.183Z,11.00
2023-01-11T01:19:36.849Z,12.30
2023-01-11T01:20:10.835Z,11.40
2023-01-11T01:20:44.463Z,9.00
2023-01-11T01:21:17.889Z,9.20
2023-01-11T01:21:51.363Z,13.20
2023-01-11T01:22:24.875Z,9.70
2023-01-11T01:22:58.375Z,8.20
2023-01-11T01:23:31.800Z,11.00
2023-01-11T01:24:05.460Z,12.00
2023-01-11T01:24:38.885Z,8.90
2023-01-11T01:25:12.366Z,13.70
2023-01-11T01:25:45.842Z,11.80
2023-01-11T01:26:19.372Z,11.80
2023-01-11T01:26:52.883Z,12.30
2023-01-11T01:27:26.668Z,9.00
2023-01-11T01:28:00.054Z,11.00
2023-01-11T01:28:43.973Z,11.90
2023-01-11T01:29:17.722Z,12.20
2023-01-11T01:29:51.109Z,8.30
2023-01-11T01:30:24.506Z,9.30
2023-01-11T01:30:57.881Z,11.70
2023-01-11T01:31:31.553Z,13.10
2023-01-11T01:32:05.363Z,10.90
2023-01-11T01:32:38.874Z,14.70
2023-01-11T01:33:12.225Z,13.80
2023-01-11T01:33:45.546Z,10.10
2023-01-11T01:34:18.967Z,10.30
2023-01-11T01:34:53.862Z,15.20
2023-01-11T01:35:28.627Z,12.00
2023-01-11T01:36:02.726Z,14.40
2023-01-11T01:36:36.304Z,10.90
2023-01-11T01:37:11.719Z,9.70
2023-01-11T01:37:45.241Z,12.30
2023-01-11T01:38:18.713Z,12.80
2023-01-11T01:38:52.265Z,12.20
2023-01-11T01:39:25.623Z,14.10
2023-01-11T01:39:59.061Z,9.80
2023-01-11T01:40:32.561Z,9.50
2023-01-11T01:41:06.097Z,9.90
2023-01-11T01:41:41.050Z,12.30
2023-01-11T01:42:17.932Z,8.70
2023-01-11T01:42:55.174Z,12.80
2023-01-11T01:43:52.990Z,11.70
2023-01-11T01:44:53.884Z,10.20
2023-01-11T01:45:29.090Z,13.60
2023-01-11T01:46:02.505Z,10.50
2023-01-11T01:46:36.041Z,10.60
2023-01-11T01:47:10.301Z,12.00
2023-01-11T01:47:51.730Z,13.10
2023-01-11T01:48:26.980Z,10.30
2023-01-11T01:49:07.335Z,9.20
2023-01-11T01:49:42.619Z,10.20
2023-01-11T01:50:18.693Z,11.60
2023-01-11T01:50:55.933Z,12.10
2023-01-11T01:51:39.619Z,10.20
2023-01-11T01:52:13.855Z,10.90
2023-01-11T01:52:52.475Z,13.40
2023-01-11T01:53:38.414Z,13.10
2023-01-11T01:54:21.197Z,8.20
2023-01-11T01:54:58.908Z,9.70
2023-01-11T01:55:37.678Z,12.00
2023-01-11T01:56:20.180Z,10.70
2023-01-11T01:57:00.032Z,11.40
2023-01-11T01:57:37.555Z,11.00
2023-01-11T01:58:16.667Z,9.00
2023-01-11T01:59:05.584Z,8.80
2023-01-11T01:59:39.245Z,10.00
2023-01-11T02:00:14.107Z,10.10
2023-01-11T02:00:47.534Z,9.00
2023-01-11T02:01:39.517Z,12.10
2023-01-11T02:02:12.933Z,9.10
2023-01-11T02:02:47.159Z,9.70
2023-01-11T02:03:24.571Z,10.80
2023-01-11T02:03:58.135Z,11.70
2023-01-11T02:04:38.537Z,11.30
2023-01-11T02:05:14.011Z,10.70
2023-01-11T02:05:48.171Z,10.40
2023-01-11T02:06:23.145Z,8.40
2023-01-11T02:07:15.055Z,9.50
2023-01-11T02:07:48.986Z,10.60
2023-01-11T02:08:33.328Z,9.30
2023-01-11T02:09:23.683Z,11.40
2023-01-11T02:09:57.158Z,12.40
2023-01-11T02:10:33.211Z,8.70
2023-01-11T02:11:27.980Z,10.80
2023-01-11T02:12:03.215Z,9.20
2023-01-11T02:12:51.008Z,10.80
2023-01-11T02:13:24.991Z,12.50
2023-01-11T02:14:09.451Z,11.00
2023-01-11T02:14:44.545Z,12.70
2023-01-11T02:15:21.128Z,8.40
2023-01-11T02:16:08.311Z,9.30
2023-01-11T02:16:42.181Z,7.90
2023-01-11T02:17:15.959Z,14.10
2023-01-11T02:17:49.495Z,10.10
2023-01-11T02:18:23.133Z,12.60
2023-01-11T02:18:58.923Z,9.20
2023-01-11T02:20:00.248Z,10.60
2023-01-11T02:21:27.824Z,9.60
2023-01-11T02:22:28.736Z,12.20
2023-01-11T02:23:02.136Z,10.80
2023-01-11T02:23:45.081Z,12.50
2023-01-11T02:24:36.883Z,10.80
2023-01-11T02:25:34.751Z,11.50
2023-01-11T02:26:10.775Z,8.00
2023-01-11T02:27:02.630Z,13.20
2023-01-11T02:28:07.827Z,7.90
2023-01-11T02:28:52.762Z,9.00
2023-01-11T02:29:33.276Z,11.60
2023-01-11T02:30:14.139Z,9.90
2023-01-11T02:31:12.592Z,8.80
2023-01-11T02:32:18.274Z,8.60
2023-01-11T02:32:57.262Z,9.80
2023-01-11T02:34:08.570Z,9.50
2023-01-11T02:34:57.676Z,7.80
2023-01-11T02:35:47.156Z,10.70
2023-01-11T02:36:47.005Z,9.20
2023-01-11T02:37:39.532Z,14.50
2023-01-11T02:38:33.770Z,11.90
2023-01-11T02:39:10.025Z,10.20
2023-01-11T02:39:52.446Z,8.40
2023-01-11T02:40:36.162Z,9.70
2023-01-11T02:41:28.708Z,13.50
2023-01-11T02:42:39.781Z,10.60
2023-01-11T02:43:52.112Z,10.70
2023-01-11T02:44:55.690Z,8.80
2023-01-11T02:45:29.238Z,9.10
2023-01-11T02:46:13.534Z,11.90
2023-01-11T02:46:52.708Z,11.00
2023-01-11T02:47:55.219Z,10.90
2023-01-11T02:48:37.545Z,10.80
2023-01-11T02:51:52.023Z,8.80
2023-01-11T02:52:49.841Z,10.30
2023-01-11T02:53:32.236Z,12.80
2023-01-11T02:54:09.683Z,9.80
2023-01-11T02:54:46.702Z,12.40
2023-01-11T02:55:27.012Z,11.20
2023-01-11T02:56:06.161Z,8.50
2023-01-11T02:56:43.779Z,17.30
2023-01-11T02:57:17.783Z,13.70
2023-01-11T02:57:55.105Z,11.20
2023-01-11T02:58:33.030Z,12.50
2023-01-11T02:59:11.769Z,11.90
2023-01-11T02:59:49.311Z,10.50
2023-01-11T03:00:24.553Z,12.10
2023-01-11T03:00:59.871Z,11.60
2023-01-11T03:01:33.412Z,15.30
2023-01-11T03:02:06.959Z,11.80
2023-01-11T03:02:40.388Z,13.40
2023-01-11T03:03:24.977Z,12.50
2023-01-11T03:03:59.116Z,11.00
2023-01-11T03:04:35.840Z,12.20
2023-01-11T03:05:14.536Z,15.30
2023-01-11T03:06:12.728Z,14.80
2023-01-11T03:06:47.877Z,16.10
2023-01-11T03:07:49.242Z,13.40
2023-01-11T03:08:34.707Z,14.00
2023-01-11T03:09:26.538Z,12.50
2023-01-11T03:10:12.307Z,15.10
2023-01-11T03:11:11.671Z,14.30
2023-01-11T03:12:18.809Z,14.10
2023-01-11T03:13:08.793Z,12.00
2023-01-11T03:13:57.635Z,10.60
2023-01-11T03:14:46.207Z,12.40
2023-01-11T03:15:54.139Z,14.00
2023-01-11T03:16:31.342Z,10.20
2023-01-11T03:17:17.000Z,13.70
2023-01-11T03:17:50.338Z,11.50
2023-01-11T03:18:37.025Z,14.50
2023-01-11T03:19:19.134Z,14.00
2023-01-11T03:19:54.803Z,13.90
2023-01-11T03:20:37.576Z,13.50
2023-01-11T03:21:49.047Z,13.00
2023-01-11T03:22:32.543Z,11.60
2023-01-11T03:23:30.569Z,16.30
2023-01-11T03:24:09.472Z,10.90
2023-01-11T03:24:58.371Z,11.10
2023-01-11T03:25:47.751Z,13.60
2023-01-11T03:26:33.160Z,13.10
2023-01-11T03:27:29.116Z,12.10
2023-01-11T03:28:06.328Z,16.40
2023-01-11T03:28:51.900Z,15.60
2023-01-11T03:29:45.597Z,15.20
2023-01-11T03:30:29.057Z,10.40
2023-01-11T03:31:31.089Z,14.00
2023-01-11T03:32:26.087Z,15.90
2023-01-11T03:33:10.282Z,12.30
2023-01-11T03:34:12.817Z,13.00
2023-01-11T03:35:08.629Z,13.10
2023-01-11T03:35:45.804Z,13.90
2023-01-11T03:36:21.963Z,13.30
2023-01-11T03:37:01.457Z,12.40
2023-01-11T03:37:51.374Z,17.00
2023-01-11T03:38:37.194Z,10.70
2023-01-11T03:39:33.873Z,14.80
2023-01-11T03:40:17.433Z,18.80
2023-01-11T03:40:56.265Z,12.70
2023-01-11T03:41:34.402Z,17.40
2023-01-11T03:42:10.133Z,12.90
2023-01-11T03:43:06.649Z,13.30
2023-01-11T03:43:44.527Z,13.00
2023-01-11T03:44:20.041Z,12.40
2023-01-11T03:44:57.539Z,18.20
2023-01-11T03:45:35.037Z,18.90
2023-01-11T03:46:22.352Z,12.60
2023-01-11T03:47:03.277Z,15.00
2023-01-11T03:47:36.716Z,12.70
2023-01-11T03:48:17.121Z,12.90
2023-01-11T03:49:06.770Z,14.00
2023-01-11T03:50:11.382Z,13.20
2023-01-11T03:50:48.491Z,11.90
2023-01-11T03:51:30.075Z,12.70
2023-01-11T03:52:09.595Z,15.20
2023-01-11T03:52:44.124Z,11.80
2023-01-11T03:53:20.055Z,15.50
2023-01-11T03:53:58.543Z,14.60
2023-01-11T03:54:34.070Z,16.30
2023-01-11T03:55:10.623Z,16.70
2023-01-11T03:55:47.039Z,11.40
2023-01-11T03:56:26.507Z,10.80
2023-01-11T03:57:20.629Z,15.70
2023-01-11T03:57:55.883Z,8.80
2023-01-11T03:58:29.842Z,16.00
2023-01-11T03:59:03.358Z,12.70
2023-01-11T03:59:38.660Z,17.20
2023-01-11T04:00:12.430Z,13.70
2023-01-11T04:00:46.549Z,14.10
2023-01-11T04:01:20.120Z,14.20
2023-01-11T04:01:57.213Z,15.50
2023-01-11T04:02:40.536Z,13.40
2023-01-11T04:03:14.933Z,11.50
2023-01-11T04:03:48.260Z,14.00
2023-01-11T04:04:22.256Z,13.50
2023-01-11T04:04:55.667Z,13.90
2023-01-11T04:05:29.354Z,13.10
2023-01-11T04:06:03.375Z,11.20
2023-01-11T04:06:38.674Z,13.90
2023-01-11T04:07:12.161Z,11.30
2023-01-11T04:07:45.986Z,10.50
2023-01-11T04:08:19.967Z,15.00
2023-01-11T04:08:53.365Z,9.50
2023-01-11T04:09:26.722Z,13.10
2023-01-11T04:10:00.260Z,11.50
2023-01-11T04:10:33.692Z,13.60
2023-01-11T04:11:07.627Z,16.20
2023-01-11T04:11:41.075Z,16.10
2023-01-11T04:12:14.552Z,15.00
2023-01-11T04:12:49.043Z,13.70
2023-01-11T04:13:22.549Z,12.10
2023-01-11T04:13:56.059Z,14.00
2023-01-11T04:14:29.586Z,12.70
2023-01-11T04:15:05.368Z,14.80
2023-01-11T04:15:38.856Z,11.80
2023-01-11T04:16:12.293Z,12.90
2023-01-11T04:16:45.740Z,14.90
2023-01-11T04:17:19.171Z,13.10
2023-01-11T04:17:52.654Z,14.40
2023-01-11T04:18:26.183Z,16.60
2023-01-11T04:19:00.133Z,14.30
2023-01-11T04:19:33.507Z,14.40
2023-01-11T04:20:10.139Z,15.00
2023-01-11T04:20:43.593Z,15.20
2023-01-11T04:21:17.074Z,11.80
2023-01-11T04:21:50.416Z,11.00
2023-01-11T04:22:23.847Z,14.90
2023-01-11T04:22:57.238Z,15.80
2023-01-11T04:23:31.177Z,11.10
2023-01-11T04:24:04.737Z,16.00
2023-01-11T04:24:38.106Z,12.50
2023-01-11T04:25:11.528Z,11.80
2023-01-11T04:25:45.031Z,12.30
2023-01-11T04:26:18.407Z,14.20
2023-01-11T04:26:51.813Z,15.10
2023-01-11T04:27:25.153Z,13.40
2023-01-11T04:27:59.420Z,11.30
2023-01-11T04:28:34.517Z,14.00
2023-01-11T04:29:07.891Z,14.10
2023-01-11T04:29:41.434Z,13.40
2023-01-11T04:30:15.134Z,11.70
2023-01-11T04:30:48.512Z,14.80
2023-01-11T04:31:22.180Z,13.10
2023-01-11T04:31:55.717Z,15.20
2023-01-11T04:32:29.178Z,13.10
2023-01-11T04:33:02.552Z,13.20
2023-01-11T04:33:36.091Z,11.70
2023-01-11T04:34:09.659Z,14.00
2023-01-11T04:34:43.326Z,11.50
2023-01-11T04:35:16.811Z,15.20
2023-01-11T04:35:50.520Z,11.20
2023-01-11T04:36:24.370Z,13.00
2023-01-11T04:36:57.735Z,14.30
2023-01-11T04:37:31.260Z,16.50
2023-01-11T04:38:06.848Z,14.20
2023-01-11T04:38:40.174Z,10.90
2023-01-11T04:39:13.536Z,11.80
2023-01-11T04:39:47.177Z,13.10
2023-01-11T04:40:20.653Z,11.10
2023-01-11T04:41:14.158Z,14.30
2023-01-11T04:42:06.442Z,11.90
2023-01-11T04:42:40.020Z,13.40
2023-01-11T04:43:13.648Z,10.00
2023-01-11T04:43:47.023Z,11.50
2023-01-11T04:44:20.382Z,14.60
2023-01-11T04:44:53.821Z,11.30
2023-01-11T04:45:27.177Z,11.70
2023-01-11T04:46:00.641Z,11.50
2023-01-11T04:46:34.362Z,11.60
2023-01-11T04:47:07.730Z,9.80
2023-01-11T04:47:41.210Z,10.50
2023-01-11T04:48:14.552Z,10.90
2023-01-11T04:48:48.031Z,9.10
2023-01-11T04:49:21.416Z,11.50
2023-01-11T04:49:54.902Z,11.00
2023-01-11T04:50:28.432Z,13.40
2023-01-11T04:51:01.901Z,9.70
2023-01-11T04:51:35.343Z,12.80
2023-01-11T04:52:11.649Z,11.70
2023-01-11T04:52:45.097Z,12.80
2023-01-11T04:53:18.412Z,10.00
2023-01-11T04:53:51.981Z,11.90
2023-01-11T04:54:25.401Z,9.30
2023-01-11T04:54:58.753Z,11.80
2023-01-11T04:55:32.149Z,10.40
2023-01-11T04:56:07.244Z,10.90
2023-01-11T04:56:40.774Z,9.70
2023-01-11T04:57:16.356Z,11.10
2023-01-11T04:57:49.730Z,10.90
2023-01-11T04:58:23.102Z,10.40
2023-01-11T04:58:56.877Z,12.30
2023-01-11T04:59:30.519Z,8.80
2023-01-11T05:00:11.019Z,9.90
2023-01-11T05:00:44.503Z,10.50
2023-01-11T05:01:19.633Z,10.70
2023-01-11T05:01:53.121Z,10.10
2023-01-11T05:02:26.699Z,11.00
2023-01-11T05:03:00.159Z,9.00
2023-01-11T05:03:33.626Z,12.40
2023-01-11T05:04:07.232Z,8.20
2023-01-11T05:04:40.823Z,7.20
2023-01-11T05:05:14.251Z,7.30
2023-01-11T05:06:01.623Z,7.70
2023-01-11T05:06:35.042Z,7.10
2023-01-11T05:07:09.530Z,5.70
2023-01-11T05:07:43.137Z,6.20
2023-01-11T05:08:16.544Z,5.20
2023-01-11T05:08:49.967Z,4.70
2023-01-11T05:09:23.477Z,5.50
2023-01-11T05:09:56.788Z,6.90
2023-01-11T05:10:32.460Z,4.60
2023-01-11T05:11:08.620Z,4.80
2023-01-11T05:11:42.261Z,4.60
2023-01-11T05:12:15.664Z,5.10
2023-01-11T05:12:49.075Z,5.10
2023-01-11T05:13:41.639Z,4.60
2023-01-11T05:14:16.771Z,5.60
2023-01-11T05:14:50.227Z,5.00
2023-01-11T05:15:23.924Z,5.00
2023-01-11T05:15:57.274Z,6.00
2023-01-11T05:16:30.780Z,4.30
2023-01-11T05:17:04.204Z,3.80
2023-01-11T05:17:37.687Z,3.90
2023-01-11T05:18:11.236Z,4.20
2023-01-11T05:18:48.862Z,3.10
2023-01-11T05:19:22.291Z,4.70
2023-01-11T05:19:55.677Z,4.30
2023-01-11T05:20:28.997Z,3.50
2023-01-11T05:21:02.851Z,5.00
2023-01-11T05:21:39.440Z,5.40
2023-01-11T05:22:12.853Z,3.80
2023-01-11T05:22:46.211Z,4.10
2023-01-11T05:23:19.571Z,4.40
2023-01-11T05:23:54.398Z,3.60
2023-01-11T05:24:27.927Z,3.10
2023-01-11T05:25:01.388Z,3.30
2023-01-11T05:25:34.885Z,5.80
2023-01-11T05:26:20.458Z,3.90
2023-01-11T05:26:53.857Z,3.70
2023-01-11T05:27:27.245Z,4.60
2023-01-11T05:28:00.621Z,3.60
2023-01-11T05:28:35.122Z,4.10
2023-01-11T05:29:11.322Z,4.20
2023-01-11T05:29:45.936Z,5.20
2023-01-11T05:30:19.651Z,3.50
2023-01-11T05:30:53.659Z,3.30
2023-01-11T05:31:27.636Z,3.90
2023-01-11T05:32:01.443Z,4.20
2023-01-11T05:32:35.002Z,3.40
2023-01-11T05:33:08.382Z,4.00
2023-01-11T05:33:42.073Z,4.00
2023-01-11T05:34:16.794Z,3.70
2023-01-11T05:34:50.186Z,4.40
2023-01-11T05:35:23.841Z,3.30
2023-01-11T05:36:02.821Z,3.10
2023-01-11T05:36:36.794Z,4.30
2023-01-11T05:37:10.108Z,3.40
2023-01-11T05:37:43.597Z,3.30
2023-01-11T05:38:17.174Z,4.60
2023-01-11T05:38:52.438Z,4.90
2023-01-11T05:39:25.952Z,3.80
2023-01-11T05:39:59.330Z,3.90
2023-01-11T05:40:32.806Z,2.50
2023-01-11T05:41:08.722Z,3.50
2023-01-11T05:41:42.390Z,4.30
2023-01-11T05:42:16.957Z,4.00
2023-01-11T05:42:50.492Z,3.70
2023-01-11T05:43:24.050Z,3.40
2023-01-11T05:44:16.389Z,4.70
2023-01-11T05:45:08.562Z,3.60
2023-01-11T05:45:41.957Z,3.50
2023-01-11T05:46:15.391Z,3.00
2023-01-11T05:46:49.065Z,4.00
2023-01-11T05:47:24.782Z,3.40
2023-01-11T05:47:59.573Z,3.30
2023-01-11T05:48:32.930Z,3.10
2023-01-11T05:49:07.453Z,4.50
2023-01-11T05:49:40.787Z,3.60
2023-01-11T05:50:14.214Z,4.80
2023-01-11T05:51:05.561Z,3.90
2023-01-11T05:51:40.057Z,4.40
2023-01-11T05:52:13.466Z,3.50
2023-01-11T05:52:46.908Z,4.00
2023-01-11T05:53:21.905Z,3.80
2023-01-11T05:53:56.707Z,3.80
2023-01-11T05:54:30.328Z,4.30
2023-01-11T05:55:04.021Z,4.90
2023-01-11T05:55:37.476Z,2.70
2023-01-11T05:56:13.364Z,3.90
2023-01-11T05:56:46.883Z,3.80
2023-01-11T05:57:20.616Z,4.60
2023-01-11T05:57:55.238Z,3.90
2023-01-11T05:58:28.719Z,4.10
2023-01-11T05:59:04.125Z,4.50
2023-01-11T05:59:37.696Z,4.10
2023-01-11T06:00:12.891Z,3.60
2023-01-11T06:00:51.122Z,3.70
2023-01-11T06:01:25.512Z,3.30
2023-01-11T06:01:58.981Z,2.90
2023-01-11T06:02:32.719Z,3.70
2023-01-11T06:03:06.681Z,5.90
2023-01-11T06:03:40.075Z,5.80
2023-01-11T06:04:13.537Z,5.90
2023-01-11T06:04:46.941Z,3.30
2023-01-11T06:05:20.607Z,4.20
2023-01-11T06:05:54.756Z,3.60
2023-01-11T06:06:28.194Z,5.20
2023-01-11T06:07:01.667Z,4.80
2023-01-11T06:07:35.202Z,3.50
2023-01-11T06:08:08.832Z,4.30
2023-01-11T06:08:42.262Z,6.20
2023-01-11T06:09:15.707Z,4.40
2023-01-11T06:09:49.097Z,4.00
2023-01-11T06:10:22.500Z,4.00
2023-01-11T06:10:57.116Z,4.70
2023-01-11T06:11:30.633Z,3.10
2023-01-11T06:12:04.042Z,4.90
2023-01-11T06:12:37.388Z,3.80
2023-01-11T06:13:29.025Z,3.90
2023-01-11T06:14:02.505Z,4.90
2023-01-11T06:14:38.038Z,10.10
2023-01-11T06:15:11.791Z,5.10
2023-01-11T06:15:45.205Z,3.70
2023-01-11T06:16:20.805Z,3.60
2023-01-11T06:16:55.096Z,3.20
2023-01-11T06:17:28.597Z,5.00
2023-01-11T06:18:02.024Z,4.30
2023-01-11T06:18:38.040Z,3.80
2023-01-11T06:19:11.708Z,5.40
2023-01-11T06:19:45.039Z,4.20
2023-01-11T06:20:18.494Z,4.80
2023-01-11T06:20:53.822Z,4.30
2023-01-11T06:21:27.302Z,4.10
2023-01-11T06:22:00.706Z,3.80
2023-01-11T06:22:34.140Z,5.00
2023-01-11T06:23:07.640Z,6.40
2023-01-11T06:23:44.313Z,4.30
2023-01-11T06:24:17.965Z,4.30
2023-01-11T06:24:51.447Z,4.20
2023-01-11T06:25:24.870Z,3.70
2023-01-11T06:26:02.629Z,4.60
2023-01-11T06:26:38.808Z,4.50
2023-01-11T06:27:17.731Z,4.80
2023-01-11T06:27:52.987Z,4.20
2023-01-11T06:28:26.400Z,4.10
2023-01-11T06:28:59.811Z,4.10
2023-01-11T06:29:33.375Z,4.80
2023-01-11T06:30:07.660Z,3.50
2023-01-11T06:30:41.492Z,4.60
2023-01-11T06:31:17.615Z,3.50
2023-01-11T06:31:51.522Z,4.50
2023-01-11T06:32:24.971Z,5.10
2023-01-11T06:33:07.744Z,4.60
2023-01-11T06:33:41.373Z,4.90
2023-01-11T06:34:14.807Z,4.10
2023-01-11T06:34:48.142Z,5.20
2023-01-11T06:35:21.926Z,4.20
2023-01-11T06:35:56.145Z,4.10
2023-01-11T06:36:29.900Z,3.70
2023-01-11T06:37:03.441Z,5.00
2023-01-11T06:37:36.867Z,4.90
2023-01-11T06:38:12.512Z,4.60
2023-01-11T06:38:46.089Z,4.10
2023-01-11T06:39:19.740Z,5.90
2023-01-11T06:39:53.073Z,4.30
2023-01-11T06:40:26.473Z,5.10
2023-01-11T06:41:02.228Z,4.50
2023-01-11T06:41:35.639Z,4.80
2023-01-11T06:42:08.990Z,4.70
2023-01-11T06:42:42.629Z,6.30
2023-01-11T06:43:16.063Z,4.90
2023-01-11T06:43:51.322Z,5.20
2023-01-11T06:44:24.745Z,4.40
2023-01-11T06:44:58.079Z,6.80
2023-01-11T06:45:31.928Z,4.80
2023-01-11T06:46:07.633Z,4.00
2023-01-11T06:46:41.366Z,3.80
2023-01-11T06:47:14.809Z,3.90
2023-01-11T06:47:48.437Z,4.70
2023-01-11T06:48:23.357Z,4.60
2023-01-11T06:48:56.766Z,5.50
2023-01-11T06:49:30.384Z,3.60
2023-01-11T06:50:04.622Z,4.10
2023-01-11T06:50:37.984Z,3.40
2023-01-11T06:51:12.240Z,5.10
2023-01-11T06:51:45.728Z,5.00
2023-01-11T06:52:19.099Z,6.60
2023-01-11T06:53:01.071Z,4.10
2023-01-11T06:53:34.440Z,4.50
2023-01-11T06:54:07.905Z,5.50
2023-01-11T06:54:41.321Z,5.60
2023-01-11T06:55:14.734Z,4.10
2023-01-11T06:55:52.739Z,4.20
2023-01-11T06:56:26.174Z,7.40
2023-01-11T06:56:59.515Z,6.30
2023-01-11T06:57:33.916Z,4.60
2023-01-11T06:58:07.342Z,3.80
2023-01-11T06:58:40.917Z,6.60
2023-01-11T06:59:14.337Z,5.30
2023-01-11T06:59:47.750Z,5.10
2023-01-11T07:00:21.808Z,6.30
2023-01-11T07:00:57.339Z,8.40
2023-01-11T07:01:32.541Z,5.90
2023-01-11T07:02:06.621Z,4.50
2023-01-11T07:02:39.988Z,6.10
2023-01-11T07:03:13.644Z,7.20
2023-01-11T07:03:47.004Z,5.10
2023-01-11T07:04:21.833Z,4.70
2023-01-11T07:04:55.293Z,5.50
2023-01-11T07:05:28.718Z,5.90
2023-01-11T07:06:02.857Z,6.50
2023-01-11T07:06:36.494Z,6.70
2023-01-11T07:07:10.011Z,7.70
2023-01-11T07:07:44.196Z,6.00
2023-01-11T07:08:17.667Z,5.60
2023-01-11T07:08:51.056Z,6.40
2023-01-11T07:09:24.396Z,7.30
2023-01-11T07:09:57.753Z,7.20
2023-01-11T07:10:31.444Z,6.60
2023-01-11T07:11:05.057Z,5.90
2023-01-11T07:11:39.433Z,8.10
2023-01-11T07:12:12.777Z,4.40
2023-01-11T07:12:46.148Z,5.40
2023-01-11T07:13:19.905Z,4.90
2023-01-11T07:13:53.229Z,7.40
2023-01-11T07:14:26.632Z,6.80
2023-01-11T07:15:00.157Z,4.90
2023-01-11T07:15:33.886Z,6.60
2023-01-11T07:16:07.589Z,5.80
2023-01-11T07:16:41.721Z,6.90
2023-01-11T07:17:15.190Z,5.80
2023-01-11T07:17:53.383Z,6.90
2023-01-11T07:18:26.835Z,6.00
2023-01-11T07:19:00.295Z,6.60
2023-01-11T07:19:33.739Z,4.40
2023-01-11T07:20:08.101Z,6.10
2023-01-11T07:20:41.971Z,6.40
2023-01-11T07:21:15.405Z,5.70
2023-01-11T07:21:48.873Z,7.90
2023-01-11T07:22:22.971Z,6.30
2023-01-11T07:23:00.559Z,4.40
2023-01-11T07:23:33.956Z,6.20
2023-01-11T07:24:07.399Z,6.30
2023-01-11T07:24:40.755Z,5.40
2023-01-11T07:25:14.242Z,6.20
2023-01-11T07:25:48.733Z,4.90
2023-01-11T07:26:22.178Z,6.40
2023-01-11T07:26:56.545Z,6.90
2023-01-11T07:27:30.057Z,4.70
2023-01-11T07:28:06.039Z,5.80
2023-01-11T07:28:39.483Z,5.60
2023-01-11T07:29:12.824Z,5.00
2023-01-11T07:29:46.921Z,4.70
2023-01-11T07:30:20.522Z,6.60
2023-01-11T07:30:59.389Z,5.30
2023-01-11T07:31:33.475Z,4.60
2023-01-11T07:32:08.453Z,5.70
2023-01-11T07:32:41.911Z,5.80
2023-01-11T07:33:16.627Z,5.30
2023-01-11T07:33:50.177Z,6.50
2023-01-11T07:34:24.145Z,6.00
2023-01-11T07:34:57.605Z,6.10
2023-01-11T07:35:31.132Z,6.00
2023-01-11T07:36:09.098Z,4.60
2023-01-11T07:36:42.450Z,5.60
2023-01-11T07:37:28.134Z,6.50
2023-01-11T07:38:03.304Z,5.50
2023-01-11T07:38:36.722Z,5.50
2023-01-11T07:39:10.222Z,4.70
2023-01-11T07:39:44.192Z,5.20
2023-01-11T07:40:19.417Z,5.40
2023-01-11T07:40:52.816Z,5.90
2023-01-11T07:41:44.717Z,5.40
2023-01-11T07:42:36.991Z,6.50
2023-01-11T07:43:14.912Z,4.90
2023-01-11T07:43:48.472Z,5.60
2023-01-11T07:44:22.011Z,4.00
2023-01-11T07:44:55.521Z,5.60
2023-01-11T07:45:40.842Z,5.70
2023-01-11T07:46:18.509Z,4.50
2023-01-11T07:46:52.215Z,7.20
2023-01-11T07:47:25.804Z,3.80
2023-01-11T07:47:59.229Z,6.80
2023-01-11T07:48:32.627Z,5.10
2023-01-11T07:49:05.998Z,5.40
2023-01-11T07:49:39.367Z,6.10
2023-01-11T07:50:12.836Z,5.10
2023-01-11T07:50:46.684Z,6.20
2023-01-11T07:51:24.315Z,4.80
2023-01-11T07:51:57.747Z,5.30
2023-01-11T07:52:31.235Z,5.20
2023-01-11T07:53:04.688Z,4.70
2023-01-11T07:53:38.128Z,5.10
2023-01-11T07:54:11.471Z,4.40
2023-01-11T07:54:44.941Z,4.60
2023-01-11T07:55:18.391Z,7.20
2023-01-11T07:55:51.813Z,5.20
2023-01-11T07:56:25.241Z,4.30
2023-01-11T07:56:58.936Z,4.30
2023-01-11T07:57:33.314Z,4.70
2023-01-11T07:58:15.412Z,4.00
2023-01-11T07:58:48.768Z,7.40
2023-01-11T07:59:22.727Z,4.10
2023-01-11T07:59:56.079Z,3.70
2023-01-11T08:00:29.679Z,5.00
2023-01-11T08:01:03.204Z,4.70
2023-01-11T08:01:37.247Z,4.60
2023-01-11T08:02:12.045Z,4.70
2023-01-11T08:02:45.623Z,4.20
2023-01-11T08:03:19.170Z,4.40
2023-01-11T08:03:52.741Z,5.40
2023-01-11T08:04:26.228Z,3.90
2023-01-11T08:05:01.668Z,3.50
2023-01-11T08:05:36.820Z,5.60
2023-01-11T08:06:10.360Z,4.50
2023-01-11T08:06:43.796Z,4.10